Archival Weather

Republic

Farmingdale, New York (KFRG)

Report from: Wednesday, February 21, 2024 11:53 AM EST
Current time: Monday, June 24, 2024 5:26 AM EDT

Current weather – Weather history – Daily summaries
Weather forecast

Temperature2.8°C (37.0°F)
Wind chill-0.6°C (31.0°F)
Dew point-4.4°C (24.1°F)
Winds 7 kts (3.6 m/s, 8.1 mph) East (100°)
Visibility10 mi. (16.1 km)
Clouds Ceiling: Overcast 3,300 ft. (1,006 m)
Altimeter30.46 in.Hg (1031 mB)
Relative humidity59 %
Density altitude-2,029 ft. (-619 m)
Sea-level pressure103.2 kPa (1032 mB, 30.46 in.Hg)
Remarks Automated weather observing station without precipitation discriminator
Flight conditions Visual Meteorological Conditions
Raw dataKFRG 211653Z 10007KT 10SM OVC033 03/M04 A3046 RMK AO1 SLP315 T00281044
An error has occurred. This application may no longer respond until reloaded. Reload 🗙